createdAt,value
2022-08-11T00:02:04.195Z,5.60
2022-08-11T00:05:14.390Z,8.75
2022-08-11T00:08:26.270Z,5.95
2022-08-11T00:11:46.311Z,6.72
2022-08-11T00:15:01.390Z,6.53
2022-08-11T00:18:07.259Z,9.57
2022-08-11T00:21:14.393Z,8.82
2022-08-11T00:24:21.536Z,5.45
2022-08-11T00:27:35.752Z,9.52
2022-08-11T00:30:42.363Z,6.88
2022-08-11T00:33:53.798Z,11.70
2022-08-11T00:37:08.095Z,4.75
2022-08-11T00:40:42.062Z,4.22
2022-08-11T00:44:30.588Z,8.60
2022-08-11T00:48:12.214Z,7.68
2022-08-11T00:52:25.260Z,6.68
2022-08-11T00:56:13.834Z,5.28
2022-08-11T00:59:50.184Z,6.28
2022-08-11T01:03:10.803Z,6.35
2022-08-11T01:06:51.550Z,6.22
2022-08-11T01:10:22.727Z,4.13
2022-08-11T01:14:40.886Z,4.68
2022-08-11T01:18:40.340Z,7.68
2022-08-11T01:22:01.477Z,3.92
2022-08-11T01:25:57.092Z,8.85
2022-08-11T01:29:21.677Z,9.65
2022-08-11T01:33:23.990Z,7.18
2022-08-11T01:37:03.194Z,9.18
2022-08-11T01:40:49.090Z,5.65
2022-08-11T01:44:22.109Z,6.43
2022-08-11T01:47:52.868Z,7.30
2022-08-11T01:51:17.208Z,6.45
2022-08-11T01:54:32.771Z,6.88
2022-08-11T01:57:48.002Z,4.25
2022-08-11T02:01:38.013Z,4.45
2022-08-11T02:05:15.443Z,11.23
2022-08-11T02:09:08.116Z,6.82
2022-08-11T02:12:32.860Z,9.20
2022-08-11T02:15:46.801Z,7.13
2022-08-11T02:19:37.609Z,9.63
2022-08-11T02:23:58.644Z,6.07
2022-08-11T02:27:23.924Z,5.68
2022-08-11T02:30:35.875Z,13.02
2022-08-11T02:33:42.533Z,7.75
2022-08-11T02:37:23.549Z,8.18
2022-08-11T02:41:01.313Z,6.10
2022-08-11T02:44:30.464Z,8.57
2022-08-11T02:48:07.693Z,9.05
2022-08-11T02:51:37.178Z,5.82
2022-08-11T02:55:11.568Z,7.95
2022-08-11T02:59:20.813Z,9.95
2022-08-11T03:02:32.248Z,7.82
2022-08-11T03:06:17.572Z,4.93
2022-08-11T03:09:41.138Z,7.90
2022-08-11T03:13:39.995Z,5.55
2022-08-11T03:17:17.531Z,4.88
2022-08-11T03:20:52.255Z,5.78
2022-08-11T03:24:21.804Z,9.63
2022-08-11T03:27:41.203Z,11.48
2022-08-11T03:31:14.008Z,6.75
2022-08-11T03:34:26.485Z,5.18
2022-08-11T03:38:01.601Z,8.57
2022-08-11T03:42:02.211Z,7.28
2022-08-11T03:45:26.969Z,5.55
2022-08-11T03:49:07.444Z,6.60
2022-08-11T03:53:04.297Z,7.18
2022-08-11T03:56:48.872Z,7.45
2022-08-11T04:00:25.327Z,6.85
2022-08-11T04:04:00.740Z,6.90
2022-08-11T04:07:52.197Z,11.93
2022-08-11T04:11:25.830Z,5.28
2022-08-11T04:15:14.529Z,5.30
2022-08-11T04:18:51.871Z,5.05
2022-08-11T04:22:47.122Z,8.43
2022-08-11T04:26:35.859Z,8.27
2022-08-11T04:30:05.007Z,7.50
2022-08-11T04:33:36.684Z,10.43
2022-08-11T04:37:34.782Z,8.18
2022-08-11T04:41:26.991Z,8.85
2022-08-11T04:44:57.563Z,15.55
2022-08-11T04:48:55.343Z,12.40
2022-08-11T04:53:12.277Z,7.53
2022-08-11T04:56:44.321Z,8.25
2022-08-11T05:00:27.555Z,8.00
2022-08-11T05:04:05.399Z,7.47
2022-08-11T05:07:32.743Z,8.15
2022-08-11T05:11:15.576Z,7.63
2022-08-11T05:15:09.862Z,8.68
2022-08-11T05:18:38.925Z,10.65
2022-08-11T05:22:12.079Z,6.45
2022-08-11T05:26:44.801Z,8.43
2022-08-11T05:30:14.498Z,12.38
2022-08-11T05:34:13.457Z,10.18
2022-08-11T05:37:32.352Z,13.18
2022-08-11T05:41:00.136Z,9.82
2022-08-11T05:44:24.486Z,7.90
2022-08-11T05:47:49.018Z,8.90
2022-08-11T05:51:22.041Z,7.55
2022-08-11T05:54:54.634Z,8.23
2022-08-11T05:58:03.910Z,13.95
2022-08-11T06:01:12.305Z,7.10
2022-08-11T06:04:24.488Z,10.23
2022-08-11T06:07:48.879Z,8.32
2022-08-11T06:11:04.221Z,8.20
2022-08-11T06:14:11.078Z,6.95
2022-08-11T06:17:27.302Z,7.40
2022-08-11T06:20:51.540Z,9.85
2022-08-11T06:23:57.285Z,5.55
2022-08-11T06:27:12.785Z,11.02
2022-08-11T06:30:19.666Z,7.82
2022-08-11T06:33:44.091Z,9.10
2022-08-11T06:37:15.116Z,11.50
2022-08-11T06:41:11.859Z,7.88
2022-08-11T06:44:30.248Z,5.72
2022-08-11T06:47:36.334Z,4.95
2022-08-11T06:51:11.798Z,9.50
2022-08-11T06:54:17.855Z,4.75
2022-08-11T06:57:42.616Z,4.63
2022-08-11T07:00:49.998Z,9.48
2022-08-11T07:04:06.799Z,7.88
2022-08-11T07:08:33.034Z,4.13
2022-08-11T07:12:30.771Z,5.25
2022-08-11T07:16:10.923Z,4.10
2022-08-11T07:19:28.144Z,5.75
2022-08-11T07:22:54.241Z,6.22
2022-08-11T07:26:20.014Z,7.47
2022-08-11T07:29:27.387Z,7.80
2022-08-11T07:32:38.519Z,6.25
2022-08-11T07:35:50.542Z,5.85
2022-08-11T07:38:56.760Z,6.70
2022-08-11T07:42:09.465Z,8.23
2022-08-11T07:45:33.849Z,4.22
2022-08-11T07:49:00.669Z,5.85
2022-08-11T07:52:25.191Z,6.55
2022-08-11T07:55:51.483Z,5.90
2022-08-11T07:59:16.115Z,6.45
2022-08-11T08:02:41.256Z,6.30
2022-08-11T08:06:07.511Z,3.65
2022-08-11T08:09:53.717Z,4.43
2022-08-11T08:13:18.763Z,3.17
2022-08-11T08:16:43.384Z,5.32
2022-08-11T08:19:50.008Z,3.70
2022-08-11T08:22:59.615Z,4.18
2022-08-11T08:26:31.334Z,5.30
2022-08-11T08:29:56.877Z,5.63
2022-08-11T08:33:04.096Z,6.30
2022-08-11T08:36:13.129Z,3.58
2022-08-11T08:39:23.194Z,5.70
2022-08-11T08:42:33.470Z,2.90
2022-08-11T08:45:40.475Z,6.72
2022-08-11T08:48:47.776Z,7.47
2022-08-11T08:52:21.094Z,4.55
2022-08-11T08:55:21.503Z,7.07
2022-08-11T08:58:28.367Z,5.20
2022-08-11T09:01:57.651Z,4.00
2022-08-11T09:05:05.225Z,2.88
2022-08-11T09:08:11.468Z,4.00
2022-08-11T09:11:36.588Z,10.05
2022-08-11T09:15:05.338Z,4.20
2022-08-11T09:18:12.973Z,3.28
2022-08-11T09:21:46.332Z,3.63
2022-08-11T09:25:08.162Z,3.60
2022-08-11T09:28:16.399Z,3.22
2022-08-11T09:31:23.175Z,3.22
2022-08-11T09:34:29.276Z,3.42
2022-08-11T09:37:56.389Z,3.10
2022-08-11T09:41:09.613Z,3.55
2022-08-11T09:44:35.558Z,2.15
2022-08-11T09:47:43.488Z,2.22
2022-08-11T09:50:54.577Z,2.63
2022-08-11T09:54:06.733Z,2.20
2022-08-11T09:57:31.623Z,2.65
2022-08-11T10:00:40.500Z,4.07
2022-08-11T10:03:47.254Z,7.15
2022-08-11T10:07:04.802Z,2.28
2022-08-11T10:10:11.815Z,4.60
2022-08-11T10:14:30.534Z,2.40
2022-08-11T10:16:52.574Z,2.80
2022-08-11T10:20:05.255Z,2.88
2022-08-11T10:23:31.855Z,3.58
2022-08-11T10:27:00.167Z,2.42
2022-08-11T10:30:26.784Z,2.90
2022-08-11T10:33:59.126Z,2.38
2022-08-11T10:37:07.942Z,1.67
2022-08-11T10:40:22.657Z,3.92
2022-08-11T10:44:02.556Z,4.93
2022-08-11T10:47:13.214Z,2.45
2022-08-11T10:50:37.912Z,4.57
2022-08-11T10:54:11.464Z,2.15
2022-08-11T10:57:37.963Z,5.07
2022-08-11T11:00:45.737Z,2.45
2022-08-11T11:03:59.583Z,4.80
2022-08-11T11:07:24.369Z,1.55
2022-08-11T11:10:31.190Z,3.28
2022-08-11T11:13:57.269Z,1.55
2022-08-11T11:17:22.476Z,2.03
2022-08-11T11:20:47.774Z,4.10
2022-08-11T11:24:43.057Z,2.38
2022-08-11T11:28:28.464Z,2.17
2022-08-11T11:32:06.225Z,3.35
2022-08-11T11:36:18.360Z,4.22
2022-08-11T11:39:28.131Z,2.50
2022-08-11T11:42:34.277Z,2.65
2022-08-11T11:45:41.799Z,1.80
2022-08-11T11:48:47.930Z,2.95
2022-08-11T11:51:54.165Z,3.63
2022-08-11T11:55:00.606Z,3.72
2022-08-11T11:58:25.868Z,2.13
2022-08-11T12:01:34.217Z,2.92
2022-08-11T12:04:45.533Z,5.40
2022-08-11T12:08:13.064Z,6.88
2022-08-11T12:11:41.197Z,2.95
2022-08-11T12:14:49.266Z,2.22
2022-08-11T12:17:56.840Z,5.38
2022-08-11T12:21:04.534Z,2.17
2022-08-11T12:24:29.980Z,2.45
2022-08-11T12:27:36.479Z,7.13
2022-08-11T12:30:50.706Z,2.38
2022-08-11T12:34:09.591Z,2.42
2022-08-11T12:37:19.519Z,4.38
2022-08-11T12:41:15.723Z,2.20
2022-08-11T12:44:31.145Z,6.85
2022-08-11T12:48:09.598Z,6.15
2022-08-11T12:52:00.832Z,2.38
2022-08-11T12:55:35.315Z,2.17
2022-08-11T12:58:42.782Z,3.13
2022-08-11T13:02:07.246Z,3.28
2022-08-11T13:05:15.470Z,8.27
2022-08-11T13:08:25.195Z,4.68
2022-08-11T13:11:56.041Z,7.80
2022-08-11T13:15:04.657Z,3.80
2022-08-11T13:18:11.795Z,3.08
2022-08-11T13:21:26.571Z,7.20
2022-08-11T13:24:39.061Z,8.02
2022-08-11T13:27:49.063Z,3.35
2022-08-11T13:31:15.510Z,3.47
2022-08-11T13:34:27.058Z,4.20
2022-08-11T13:38:18.458Z,5.35
2022-08-11T13:41:02.643Z,3.63
2022-08-11T13:44:15.544Z,2.63
2022-08-11T13:47:25.250Z,1.50
2022-08-11T13:50:55.820Z,2.80
2022-08-11T13:54:20.330Z,1.45
2022-08-11T13:58:08.940Z,1.40
2022-08-11T14:00:56.141Z,1.08
2022-08-11T14:04:32.445Z,1.95
2022-08-11T14:07:42.770Z,3.03
2022-08-11T14:12:23.070Z,2.25
2022-08-11T14:14:38.781Z,1.00
2022-08-11T14:17:47.879Z,1.65
2022-08-11T14:21:16.030Z,3.47
2022-08-11T14:24:23.770Z,2.17
2022-08-11T14:28:30.144Z,2.10
2022-08-11T14:31:01.261Z,2.75
2022-08-11T14:34:10.659Z,0.82
2022-08-11T14:37:24.609Z,1.85
2022-08-11T14:40:49.152Z,2.00
2022-08-11T14:44:15.465Z,1.23
2022-08-11T14:47:24.066Z,1.45
2022-08-11T14:50:33.963Z,1.17
2022-08-11T14:53:40.894Z,1.65
2022-08-11T14:57:04.504Z,1.27
2022-08-11T15:00:15.718Z,8.02
2022-08-11T15:03:27.604Z,1.27
2022-08-11T15:06:34.497Z,3.20
2022-08-11T15:10:02.703Z,3.28
2022-08-11T15:13:10.679Z,1.42
2022-08-11T15:16:35.511Z,2.90
2022-08-11T15:20:03.444Z,7.13
2022-08-11T15:23:28.516Z,1.20
2022-08-11T15:26:58.727Z,1.73
2022-08-11T15:30:33.070Z,1.40
2022-08-11T15:34:00.114Z,0.95
2022-08-11T15:37:30.101Z,2.05
2022-08-11T15:40:58.309Z,2.08
2022-08-11T15:44:51.481Z,4.40
2022-08-11T15:48:05.879Z,1.23
2022-08-11T15:51:43.104Z,7.03
2022-08-11T15:55:03.377Z,1.30
2022-08-11T15:58:43.518Z,2.55
2022-08-11T16:02:17.652Z,1.45
2022-08-11T16:09:18.008Z,2.25
2022-08-11T16:13:09.152Z,1.20
2022-08-11T16:16:34.128Z,1.30
2022-08-11T16:19:59.061Z,4.07
2022-08-11T16:23:15.149Z,3.90
2022-08-11T16:27:09.026Z,2.03
2022-08-11T16:30:03.189Z,1.30
2022-08-11T16:37:44.818Z,1.23
2022-08-11T16:40:57.647Z,0.85
2022-08-11T16:44:37.778Z,0.95
2022-08-11T16:48:33.011Z,0.73
2022-08-11T16:51:42.577Z,2.00
2022-08-11T16:55:00.907Z,1.88
2022-08-11T16:58:42.942Z,1.70
2022-08-11T17:02:39.047Z,6.68
2022-08-11T17:06:19.733Z,3.30
2022-08-11T17:10:00.492Z,3.47
2022-08-11T17:14:04.906Z,2.28
2022-08-11T17:17:43.057Z,2.38
2022-08-11T17:21:59.784Z,2.58
2022-08-11T17:26:03.678Z,2.75
2022-08-11T17:29:26.534Z,4.07
2022-08-11T17:33:20.100Z,2.25
2022-08-11T17:36:55.965Z,2.53
2022-08-11T17:40:06.701Z,2.88
2022-08-11T17:43:31.324Z,2.47
2022-08-11T17:46:56.319Z,4.75
2022-08-11T17:50:14.547Z,4.30
2022-08-11T17:54:09.965Z,5.20
2022-08-11T17:57:27.903Z,3.40
2022-08-11T18:00:35.768Z,4.43
2022-08-11T18:03:42.567Z,4.47
2022-08-11T18:07:03.968Z,6.18
2022-08-11T18:10:29.217Z,6.00
2022-08-11T18:13:56.796Z,4.28
2022-08-11T18:17:21.777Z,6.28
2022-08-11T18:20:46.714Z,5.05
2022-08-11T18:24:13.580Z,4.25
2022-08-11T18:27:47.440Z,9.10
2022-08-11T18:31:29.983Z,4.43
2022-08-11T18:35:00.629Z,7.68
2022-08-11T18:38:34.937Z,8.85
2022-08-11T18:42:06.967Z,13.02
2022-08-11T18:45:45.176Z,11.38
2022-08-11T18:50:00.967Z,13.13
2022-08-11T18:53:20.620Z,12.35
2022-08-11T18:56:47.044Z,7.18
2022-08-11T19:00:12.448Z,9.45
2022-08-11T19:03:48.764Z,6.07
2022-08-11T19:07:20.525Z,5.93
2022-08-11T19:10:45.621Z,5.95
2022-08-11T19:14:10.294Z,4.55
2022-08-11T19:17:43.755Z,4.40
2022-08-11T19:21:11.036Z,5.50
2022-08-11T19:24:36.597Z,5.60
2022-08-11T19:28:03.226Z,4.65
2022-08-11T19:31:28.456Z,4.90
2022-08-11T19:34:52.994Z,2.90
2022-08-11T19:38:18.378Z,3.53
2022-08-11T19:41:57.287Z,8.32
2022-08-11T19:45:23.373Z,4.40
2022-08-11T19:48:50.195Z,8.93
2022-08-11T19:52:16.489Z,7.35
2022-08-11T19:55:41.110Z,11.18
2022-08-11T19:59:05.844Z,6.05
2022-08-11T20:02:31.120Z,7.72
2022-08-11T20:06:01.477Z,9.50
2022-08-11T20:09:28.530Z,7.65
2022-08-11T20:13:21.310Z,11.10
2022-08-11T20:16:46.065Z,7.82
2022-08-11T20:20:11.736Z,5.57
2022-08-11T20:23:37.021Z,9.57
2022-08-11T20:27:03.422Z,5.13
2022-08-11T20:30:28.699Z,5.70
2022-08-11T20:33:53.557Z,6.82
2022-08-11T20:37:19.532Z,6.88
2022-08-11T20:40:45.017Z,6.03
2022-08-11T20:44:09.919Z,3.85
2022-08-11T20:47:59.060Z,7.15
2022-08-11T20:51:22.977Z,5.22
2022-08-11T20:54:48.987Z,3.78
2022-08-11T20:58:18.270Z,3.10
2022-08-11T21:01:52.271Z,6.22
2022-08-11T21:05:19.741Z,4.82
2022-08-11T21:09:02.767Z,5.32
2022-08-11T21:12:29.062Z,5.65
2022-08-11T21:16:01.838Z,6.95
2022-08-11T21:20:00.389Z,4.88
2022-08-11T21:23:29.357Z,6.30
2022-08-11T21:27:03.599Z,3.25
2022-08-11T21:30:29.428Z,3.20
2022-08-11T21:33:54.591Z,6.18
2022-08-11T21:37:20.708Z,4.05
2022-08-11T21:40:46.780Z,4.15
2022-08-11T21:44:12.338Z,4.60
2022-08-11T21:47:43.081Z,4.47
2022-08-11T21:51:10.443Z,3.63
2022-08-11T21:54:35.384Z,10.95
2022-08-11T21:58:00.134Z,4.15
2022-08-11T22:01:24.653Z,5.45
2022-08-11T22:04:50.268Z,6.47
2022-08-11T22:08:14.808Z,5.60
2022-08-11T22:11:39.637Z,9.13
2022-08-11T22:15:04.582Z,6.35
2022-08-11T22:18:29.348Z,7.13
2022-08-11T22:22:03.170Z,7.93
2022-08-11T22:25:38.545Z,7.82
2022-08-11T22:29:03.243Z,5.63
2022-08-11T22:32:30.004Z,7.15
2022-08-11T22:35:54.410Z,7.18
2022-08-11T22:39:19.733Z,4.85
2022-08-11T22:42:44.973Z,10.75
2022-08-11T22:46:09.132Z,8.88
2022-08-11T22:49:57.222Z,5.85
2022-08-11T22:53:20.151Z,5.68
2022-08-11T22:56:47.310Z,6.95
2022-08-11T23:00:13.281Z,5.45
2022-08-11T23:03:38.691Z,6.53
2022-08-11T23:07:03.906Z,4.20
2022-08-11T23:10:28.085Z,7.60
2022-08-11T23:13:53.739Z,4.00
2022-08-11T23:17:18.059Z,4.38
2022-08-11T23:20:53.883Z,4.32
2022-08-11T23:24:20.236Z,5.55
2022-08-11T23:27:45.798Z,4.80
2022-08-11T23:31:13.659Z,3.92
2022-08-11T23:35:03.836Z,5.30
2022-08-11T23:38:35.895Z,6.75
2022-08-11T23:42:03.139Z,5.35
2022-08-11T23:45:29.177Z,4.97
2022-08-11T23:48:56.538Z,5.20
2022-08-11T23:52:22.487Z,2.83
2022-08-11T23:55:47.310Z,4.00
2022-08-11T23:59:11.481Z,7.65
